createdAt,value
2019-02-12T00:04:35.841Z,6.43
2019-02-12T00:09:43.207Z,4.27
2019-02-12T00:14:48.925Z,5.43
2019-02-12T00:19:55.949Z,5.87
2019-02-12T00:25:05.312Z,6.03
2019-02-12T00:30:10.297Z,5.30
2019-02-12T00:35:15.476Z,4.17
2019-02-12T00:40:20.082Z,8.73
2019-02-12T00:45:24.709Z,4.97
2019-02-12T00:50:30.188Z,18.00
2019-02-12T00:55:35.205Z,6.95
2019-02-12T01:00:39.820Z,4.00
2019-02-12T01:05:45.105Z,5.00
2019-02-12T01:10:53.663Z,9.80
2019-02-12T01:15:58.307Z,6.37
2019-02-12T01:21:04.547Z,7.33
2019-02-12T01:26:09.938Z,5.63
2019-02-12T01:31:15.211Z,5.80
2019-02-12T01:36:20.962Z,10.57
2019-02-12T01:41:26.626Z,4.77
2019-02-12T01:46:33.126Z,6.97
2019-02-12T01:51:38.629Z,4.70
2019-02-12T01:56:44.098Z,6.77
2019-02-12T02:01:49.003Z,6.33
2019-02-12T02:06:54.016Z,7.67
2019-02-12T02:11:58.535Z,4.67
2019-02-12T02:17:06.477Z,8.80
2019-02-12T02:22:11.558Z,4.60
2019-02-12T02:27:16.388Z,6.92
2019-02-12T02:32:21.937Z,4.83
2019-02-12T02:37:26.969Z,15.33
2019-02-12T02:42:31.793Z,6.10
2019-02-12T02:47:36.721Z,9.27
2019-02-12T02:52:43.799Z,9.53
2019-02-12T02:57:48.697Z,9.27
2019-02-12T03:02:54.268Z,11.77
2019-02-12T03:07:59.029Z,8.40
2019-02-12T03:13:04.122Z,11.60
2019-02-12T03:18:08.857Z,7.37
2019-02-12T03:23:14.890Z,8.63
2019-02-12T03:28:20.365Z,10.00
2019-02-12T03:33:25.185Z,6.37
2019-02-12T03:38:29.776Z,8.97
2019-02-12T03:43:34.755Z,7.60
2019-02-12T03:48:41.693Z,7.43
2019-02-12T03:53:46.659Z,11.23
2019-02-12T03:58:51.974Z,10.60
2019-02-12T04:03:57.419Z,6.50
2019-02-12T04:09:02.205Z,6.87
2019-02-12T04:14:07.552Z,4.37
2019-02-12T04:19:12.431Z,6.47
2019-02-12T04:24:18.192Z,8.07
2019-02-12T04:29:23.573Z,9.10
2019-02-12T04:34:29.320Z,7.80
2019-02-12T04:39:34.055Z,7.57
2019-02-12T04:44:38.957Z,11.57
2019-02-12T04:49:44.065Z,8.67
2019-02-12T04:54:48.870Z,9.57
2019-02-12T04:59:53.922Z,6.27
2019-02-12T05:04:59.060Z,8.20
2019-02-12T05:10:03.712Z,6.47
2019-02-12T05:15:09.383Z,7.37
2019-02-12T05:20:14.399Z,6.97
2019-02-12T05:25:19.425Z,10.43
2019-02-12T05:30:26.903Z,9.73
2019-02-12T05:35:32.259Z,12.33
2019-02-12T05:40:38.291Z,9.23
2019-02-12T05:45:42.828Z,11.67
2019-02-12T05:50:47.586Z,10.37
2019-02-12T05:55:53.120Z,8.63
2019-02-12T06:00:59.224Z,9.03
2019-02-12T06:06:05.939Z,7.33
2019-02-12T06:11:10.784Z,12.88
2019-02-12T06:16:15.583Z,14.03
2019-02-12T06:21:21.244Z,9.00
2019-02-12T06:26:26.191Z,8.30
2019-02-12T06:31:31.280Z,11.43
2019-02-12T06:36:36.159Z,11.67
2019-02-12T06:41:40.774Z,11.73
2019-02-12T06:46:45.540Z,13.18
2019-02-12T06:51:56.353Z,11.93
2019-02-12T06:57:02.793Z,20.00
2019-02-12T07:02:43.147Z,13.50
2019-02-12T07:08:30.255Z,18.57
2019-02-12T07:13:49.723Z,10.67
2019-02-12T07:19:29.079Z,11.60
2019-02-12T07:25:01.932Z,13.87
2019-02-12T07:31:17.740Z,13.32
2019-02-12T07:37:09.707Z,12.67
2019-02-12T07:42:58.500Z,12.37
2019-02-12T07:48:45.765Z,14.57
2019-02-12T07:54:29.722Z,16.50
2019-02-12T08:00:06.108Z,17.47
2019-02-12T08:05:51.941Z,9.77
2019-02-12T08:11:22.874Z,8.20
2019-02-12T08:17:18.001Z,10.77
2019-02-12T08:22:54.209Z,9.80
2019-02-12T08:28:31.192Z,10.30
2019-02-12T08:34:03.843Z,16.00
2019-02-12T08:40:01.757Z,12.70
2019-02-12T08:45:51.495Z,15.00
2019-02-12T08:51:27.828Z,22.47
2019-02-12T08:57:20.093Z,15.17
2019-02-12T09:02:58.554Z,13.73
2019-02-12T09:08:26.290Z,12.77
2019-02-12T09:13:49.082Z,7.97
2019-02-12T09:19:37.031Z,11.37
2019-02-12T09:25:12.845Z,10.93
2019-02-12T09:30:57.451Z,16.00
2019-02-12T09:36:38.439Z,8.60
2019-02-12T09:42:30.136Z,12.90
2019-02-12T09:48:21.491Z,15.47
2019-02-12T09:54:08.741Z,12.77
2019-02-12T09:59:39.384Z,11.03
2019-02-12T10:05:23.354Z,7.47
2019-02-12T10:11:01.807Z,8.60
2019-02-12T10:16:45.424Z,9.60
2019-02-12T10:22:38.711Z,6.60
2019-02-12T10:28:30.690Z,13.97
2019-02-12T10:33:35.519Z,7.60
2019-02-12T10:38:40.205Z,9.47
2019-02-12T10:43:45.450Z,10.77
2019-02-12T10:48:50.899Z,7.47
2019-02-12T10:53:55.340Z,5.33
2019-02-12T10:58:59.805Z,5.60
2019-02-12T11:04:04.959Z,8.23
2019-02-12T11:09:11.529Z,8.03
2019-02-12T11:14:16.289Z,6.37
2019-02-12T11:19:20.935Z,6.50
2019-02-12T11:24:26.243Z,8.08
2019-02-12T11:29:31.240Z,7.53
2019-02-12T11:34:36.328Z,10.27
2019-02-12T11:39:41.769Z,6.07
2019-02-12T11:44:46.292Z,7.73
2019-02-12T11:49:51.004Z,9.20
2019-02-12T11:54:55.745Z,7.17
2019-02-12T12:00:00.244Z,11.03
2019-02-12T12:05:05.069Z,4.80
2019-02-12T12:10:10.346Z,2.40
2019-02-12T12:15:15.629Z,5.22
2019-02-12T12:20:20.063Z,3.57
2019-02-12T12:25:25.409Z,5.27
2019-02-12T12:30:30.439Z,3.27
2019-02-12T12:35:35.828Z,8.53
2019-02-12T12:40:41.779Z,3.63
2019-02-12T12:45:47.954Z,4.50
2019-02-12T12:50:55.268Z,6.07
2019-02-12T12:56:01.171Z,2.97
2019-02-12T13:01:06.568Z,3.27
2019-02-12T13:06:11.822Z,2.90
2019-02-12T13:11:16.356Z,5.37
2019-02-12T13:16:24.871Z,2.67
2019-02-12T13:21:31.756Z,8.83
2019-02-12T13:26:36.888Z,7.60
2019-02-12T13:31:42.484Z,4.37
2019-02-12T13:36:46.988Z,5.97
2019-02-12T13:41:53.287Z,7.60
2019-02-12T13:46:59.084Z,3.50
2019-02-12T13:52:03.920Z,8.83
2019-02-12T13:57:08.861Z,7.27
2019-02-12T14:02:13.973Z,4.77
2019-02-12T14:07:19.039Z,4.70
2019-02-12T14:12:24.530Z,5.77
2019-02-12T14:17:29.888Z,1.87
2019-02-12T14:22:35.018Z,5.90
2019-02-12T14:27:39.687Z,2.43
2019-02-12T14:32:44.398Z,4.53
2019-02-12T14:37:49.137Z,6.27
2019-02-12T14:42:54.827Z,5.67
2019-02-12T14:48:02.959Z,6.73
2019-02-12T14:53:11.106Z,6.43
2019-02-12T14:58:16.634Z,5.37
2019-02-12T15:03:22.039Z,8.13
2019-02-12T15:08:26.923Z,7.00
2019-02-12T15:13:34.507Z,3.67
2019-02-12T15:18:39.081Z,3.93
2019-02-12T15:23:43.530Z,6.43
2019-02-12T15:28:48.111Z,4.17
2019-02-12T15:33:52.801Z,6.23
2019-02-12T15:38:57.247Z,9.57
2019-02-12T15:44:01.833Z,3.95
2019-02-12T15:49:06.317Z,5.57
2019-02-12T15:54:10.969Z,5.53
2019-02-12T15:59:16.359Z,5.50
2019-02-12T16:04:25.673Z,3.30
2019-02-12T16:09:28.640Z,6.37
2019-02-12T16:14:37.430Z,6.03
2019-02-12T16:19:45.202Z,3.53
2019-02-12T16:24:51.731Z,5.93
2019-02-12T16:29:56.428Z,4.15
2019-02-12T16:35:02.023Z,5.47
2019-02-12T16:40:10.142Z,10.60
2019-02-12T16:45:22.842Z,4.60
2019-02-12T16:50:28.284Z,6.90
2019-02-12T16:55:33.169Z,4.00
2019-02-12T17:00:37.753Z,5.03
2019-02-12T17:05:43.256Z,3.93
2019-02-12T17:10:48.119Z,5.73
2019-02-12T17:15:53.470Z,6.07
2019-02-12T17:21:00.436Z,4.03
2019-02-12T17:26:04.996Z,6.57
2019-02-12T17:31:10.558Z,7.08
2019-02-12T17:36:15.457Z,7.92
2019-02-12T17:41:20.051Z,3.27
2019-02-12T17:46:26.603Z,3.37
2019-02-12T17:51:31.658Z,4.50
2019-02-12T17:56:36.447Z,3.80
2019-02-12T18:01:42.417Z,5.53
2019-02-12T18:06:47.290Z,4.97
2019-02-12T18:11:58.180Z,8.93
2019-02-12T18:17:04.402Z,6.13
2019-02-12T18:22:17.471Z,5.23
2019-02-12T18:27:23.469Z,3.50
2019-02-12T18:32:29.313Z,10.55
2019-02-12T18:37:35.321Z,8.57
2019-02-12T18:42:41.436Z,11.33
2019-02-12T18:47:46.549Z,10.00
2019-02-12T18:52:52.010Z,9.03
2019-02-12T18:57:56.814Z,11.73
2019-02-12T19:03:04.079Z,14.53
2019-02-12T19:08:09.079Z,10.73
2019-02-12T19:13:14.120Z,8.70
2019-02-12T19:18:27.672Z,7.43
2019-02-12T19:23:33.103Z,8.90
2019-02-12T19:28:40.077Z,10.30
2019-02-12T19:33:44.992Z,12.13
2019-02-12T19:38:51.174Z,15.10
2019-02-12T19:43:57.588Z,14.83
2019-02-12T19:49:03.870Z,11.67
2019-02-12T19:54:11.007Z,8.38
2019-02-12T19:59:16.933Z,13.77
2019-02-12T20:04:38.822Z,8.25
2019-02-12T20:09:44.458Z,12.17
2019-02-12T20:14:49.415Z,12.47
2019-02-12T20:19:54.315Z,12.90
2019-02-12T20:25:02.954Z,8.97
2019-02-12T20:30:09.860Z,10.27
2019-02-12T20:35:14.901Z,11.83
2019-02-12T20:40:20.859Z,11.60
2019-02-12T20:45:25.988Z,13.77
2019-02-12T20:50:31.053Z,11.77
2019-02-12T20:55:36.203Z,11.63
2019-02-12T21:00:41.628Z,11.43
2019-02-12T21:05:48.125Z,14.60
2019-02-12T21:10:52.891Z,12.03
2019-02-12T21:15:58.437Z,14.53
2019-02-12T21:21:04.229Z,9.78
2019-02-12T21:26:08.746Z,13.43
2019-02-12T21:31:13.581Z,17.03
2019-02-12T21:36:18.254Z,11.57
2019-02-12T21:41:23.047Z,12.93
2019-02-12T21:46:27.616Z,8.70
2019-02-12T21:51:32.638Z,18.40
2019-02-12T21:56:37.185Z,11.73
2019-02-12T22:01:42.114Z,12.53
2019-02-12T22:06:46.882Z,16.20
2019-02-12T22:11:52.498Z,14.93
2019-02-12T22:17:09.332Z,12.67
2019-02-12T22:22:14.719Z,17.73
2019-02-12T22:27:19.450Z,19.70
2019-02-12T22:32:24.131Z,14.23
2019-02-12T22:37:31.082Z,11.93
2019-02-12T22:42:38.813Z,10.55
2019-02-12T22:47:43.548Z,10.47
2019-02-12T22:52:48.355Z,11.10
2019-02-12T22:57:53.377Z,9.30
2019-02-12T23:02:57.941Z,15.27
2019-02-12T23:08:03.264Z,13.48
2019-02-12T23:13:07.770Z,13.20
2019-02-12T23:18:12.552Z,18.05
2019-02-12T23:23:17.597Z,14.27
2019-02-12T23:28:22.163Z,14.23
2019-02-12T23:33:27.082Z,16.23
2019-02-12T23:38:31.799Z,12.20
2019-02-12T23:43:36.551Z,8.37
2019-02-12T23:48:41.318Z,9.43
2019-02-12T23:53:49.887Z,14.60
2019-02-12T23:58:54.628Z,22.80
